createdAt,value
2023-04-03T00:00:14.630Z,88.50
2023-04-03T00:02:42.482Z,82.13
2023-04-03T00:05:10.401Z,85.77
2023-04-03T00:07:39.519Z,85.70
2023-04-03T00:10:08.648Z,87.13
2023-04-03T00:12:36.337Z,90.17
2023-04-03T00:15:04.812Z,99.33
2023-04-03T00:17:32.555Z,90.73
2023-04-03T00:20:00.337Z,91.43
2023-04-03T00:22:29.641Z,85.60
2023-04-03T00:24:58.692Z,84.03
2023-04-03T00:27:26.411Z,87.90
2023-04-03T00:29:54.084Z,79.40
2023-04-03T00:32:21.741Z,92.40
2023-04-03T00:34:49.482Z,84.17
2023-04-03T00:37:17.086Z,80.50
2023-04-03T00:39:44.700Z,83.93
2023-04-03T00:42:13.891Z,82.27
2023-04-03T00:45:18.916Z,98.13
2023-04-03T00:47:46.935Z,74.93
2023-04-03T00:50:14.608Z,80.57
2023-04-03T00:52:42.505Z,89.63
2023-04-03T00:55:11.828Z,88.30
2023-04-03T00:57:40.857Z,85.80
2023-04-03T01:00:12.216Z,93.47
2023-04-03T01:02:41.719Z,85.47
2023-04-03T01:05:11.676Z,86.23
2023-04-03T01:07:40.264Z,97.37
2023-04-03T01:10:14.714Z,87.30
2023-04-03T01:12:46.584Z,89.47
2023-04-03T01:15:17.613Z,84.77
2023-04-03T01:17:47.051Z,82.20
2023-04-03T01:20:48.892Z,85.83
2023-04-03T01:23:32.679Z,79.43
2023-04-03T01:26:00.365Z,79.47
2023-04-03T01:28:31.362Z,78.50
2023-04-03T01:31:10.335Z,77.70
2023-04-03T01:33:40.074Z,75.20
2023-04-03T01:36:09.496Z,85.27
2023-04-03T01:38:37.636Z,77.97
2023-04-03T01:41:05.307Z,77.07
2023-04-03T01:43:33.568Z,71.37
2023-04-03T01:46:01.262Z,78.73
2023-04-03T01:48:28.991Z,81.23
2023-04-03T01:50:57.942Z,83.03
2023-04-03T01:53:25.797Z,85.73
2023-04-03T01:55:53.430Z,89.73
2023-04-03T01:58:21.668Z,83.70
2023-04-03T02:00:51.165Z,90.47
2023-04-03T02:03:18.929Z,86.70
2023-04-03T02:05:47.269Z,87.43
2023-04-03T02:08:18.840Z,97.23
2023-04-03T02:10:49.265Z,88.57
2023-04-03T02:13:17.765Z,86.77
2023-04-03T02:15:47.250Z,84.57
2023-04-03T02:18:18.873Z,81.80
2023-04-03T02:20:48.100Z,87.30
2023-04-03T02:23:17.496Z,87.77
2023-04-03T02:25:45.665Z,79.57
2023-04-03T02:28:13.862Z,80.10
2023-04-03T02:30:41.614Z,78.40
2023-04-03T02:33:09.327Z,81.70
2023-04-03T02:35:37.858Z,75.70
2023-04-03T02:38:05.544Z,86.57
2023-04-03T02:40:36.453Z,79.03
2023-04-03T02:43:04.589Z,79.60
2023-04-03T02:45:32.682Z,86.17
2023-04-03T02:48:00.527Z,78.17
2023-04-03T02:50:28.158Z,82.23
2023-04-03T02:52:56.167Z,78.83
2023-04-03T02:55:23.940Z,78.67
2023-04-03T02:57:55.886Z,71.30
2023-04-03T03:00:23.707Z,69.77
2023-04-03T03:02:51.398Z,71.57
2023-04-03T03:05:19.449Z,82.47
2023-04-03T03:07:47.150Z,83.90
2023-04-03T03:10:14.928Z,71.40
2023-04-03T03:12:42.893Z,74.17
2023-04-03T03:15:12.692Z,77.73
2023-04-03T03:17:40.388Z,72.40
2023-04-03T03:20:09.709Z,74.67
2023-04-03T03:22:38.079Z,81.17
2023-04-03T03:25:06.959Z,74.27
2023-04-03T03:27:34.743Z,74.03
2023-04-03T03:30:02.431Z,71.83
2023-04-03T03:32:31.892Z,74.53
2023-04-03T03:34:59.514Z,68.33
2023-04-03T03:37:28.376Z,78.87
2023-04-03T03:39:56.165Z,81.87
2023-04-03T03:42:24.160Z,75.57
2023-04-03T03:44:52.762Z,67.53
2023-04-03T03:47:21.340Z,67.87
2023-04-03T03:49:50.881Z,74.40
2023-04-03T03:52:18.948Z,73.03
2023-04-03T03:54:47.021Z,68.07
2023-04-03T03:57:14.822Z,76.60
2023-04-03T03:59:42.857Z,77.70
2023-04-03T04:02:10.895Z,71.20
2023-04-03T04:04:38.707Z,63.37
2023-04-03T04:07:07.724Z,68.60
2023-04-03T04:09:36.422Z,66.57
2023-04-03T04:12:04.841Z,63.67
2023-04-03T04:14:33.829Z,66.27
2023-04-03T04:17:03.272Z,66.47
2023-04-03T04:19:31.196Z,65.57
2023-04-03T04:21:58.901Z,61.83
2023-04-03T04:24:28.113Z,70.47
2023-04-03T04:26:57.426Z,68.03
2023-04-03T04:29:26.077Z,57.73
2023-04-03T04:31:54.176Z,68.37
2023-04-03T04:34:23.593Z,65.17
2023-04-03T04:36:51.640Z,60.03
2023-04-03T04:39:19.472Z,58.30
2023-04-03T04:41:48.659Z,57.03
2023-04-03T04:44:16.829Z,61.00
2023-04-03T04:46:44.822Z,61.53
2023-04-03T04:49:12.521Z,57.73
2023-04-03T04:51:51.027Z,57.83
2023-04-03T04:54:21.976Z,57.07
2023-04-03T04:56:52.292Z,55.53
2023-04-03T04:59:21.485Z,52.90
2023-04-03T05:01:50.344Z,58.53
2023-04-03T05:04:18.880Z,49.67
2023-04-03T05:06:50.271Z,54.87
2023-04-03T05:09:23.219Z,51.57
2023-04-03T05:11:53.654Z,51.23
2023-04-03T05:14:25.072Z,52.97
2023-04-03T05:16:54.825Z,56.57
2023-04-03T05:19:25.404Z,50.80
2023-04-03T05:21:53.249Z,52.60
2023-04-03T05:24:22.146Z,49.00
2023-04-03T05:26:49.791Z,56.63
2023-04-03T05:29:19.035Z,58.77
2023-04-03T05:31:48.159Z,50.37
2023-04-03T05:34:16.013Z,48.33
2023-04-03T05:36:44.872Z,52.43
2023-04-03T05:39:14.066Z,57.53
2023-04-03T05:41:44.452Z,58.00
2023-04-03T05:44:12.281Z,52.67
2023-04-03T05:46:42.352Z,53.20
2023-04-03T05:49:11.417Z,52.87
2023-04-03T05:51:40.598Z,57.40
2023-04-03T05:54:19.514Z,62.50
2023-04-03T05:56:47.687Z,59.07
2023-04-03T05:59:15.561Z,60.37
2023-04-03T06:01:44.925Z,52.50
2023-04-03T06:04:13.911Z,57.47
2023-04-03T06:06:46.683Z,58.80
2023-04-03T06:09:14.464Z,62.30
2023-04-03T06:11:42.744Z,59.53
2023-04-03T06:14:11.729Z,62.90
2023-04-03T06:16:40.233Z,62.67
2023-04-03T06:19:10.616Z,60.70
2023-04-03T06:21:41.418Z,67.17
2023-04-03T06:24:11.361Z,66.03
2023-04-03T06:26:38.984Z,66.90
2023-04-03T06:29:06.604Z,71.63
2023-04-03T06:31:34.269Z,63.13
2023-04-03T06:34:02.272Z,73.93
2023-04-03T06:36:31.346Z,72.47
2023-04-03T06:38:59.094Z,75.53
2023-04-03T06:41:27.625Z,88.10
2023-04-03T06:43:57.310Z,86.00
2023-04-03T06:46:25.021Z,107.53
2023-04-03T06:48:53.170Z,103.53
2023-04-03T06:51:23.355Z,115.23
2023-04-03T06:53:54.341Z,114.03
2023-04-03T06:56:22.086Z,125.27
2023-04-03T06:58:50.009Z,125.53
2023-04-03T07:01:20.098Z,138.83
2023-04-03T07:03:48.859Z,148.23
2023-04-03T07:06:18.743Z,143.90
2023-04-03T07:08:47.157Z,147.70
2023-04-03T07:11:16.579Z,151.60
2023-04-03T07:13:44.333Z,137.73
2023-04-03T07:16:12.509Z,143.57
2023-04-03T07:18:40.986Z,134.40
2023-04-03T07:21:08.753Z,128.50
2023-04-03T07:23:36.486Z,129.63
2023-04-03T07:26:04.228Z,128.17
2023-04-03T07:28:33.267Z,127.47
2023-04-03T07:31:03.501Z,137.17
2023-04-03T07:33:31.961Z,131.27
2023-04-03T07:36:01.310Z,128.90
2023-04-03T07:38:29.399Z,131.73
2023-04-03T07:40:57.256Z,136.40
2023-04-03T07:43:25.655Z,133.77
2023-04-03T07:45:55.626Z,143.03
2023-04-03T07:48:24.990Z,128.80
2023-04-03T07:50:53.101Z,128.83
2023-04-03T07:53:21.008Z,123.10
2023-04-03T07:55:49.992Z,137.27
2023-04-03T07:58:20.160Z,126.43
2023-04-03T08:00:48.553Z,116.47
2023-04-03T08:03:18.851Z,137.30
2023-04-03T08:05:48.715Z,129.23
2023-04-03T08:08:20.907Z,136.50
2023-04-03T08:10:52.031Z,136.60
2023-04-03T08:13:19.923Z,139.73
2023-04-03T08:15:47.703Z,138.50
2023-04-03T08:18:17.538Z,143.30
2023-04-03T08:20:45.833Z,146.20
2023-04-03T08:23:13.585Z,152.67
2023-04-03T08:25:41.791Z,161.97
2023-04-03T08:28:09.914Z,172.13
2023-04-03T08:30:38.652Z,160.37
2023-04-03T08:33:07.150Z,165.47
2023-04-03T08:35:41.546Z,160.77
2023-04-03T08:38:09.537Z,171.03
2023-04-03T08:40:37.223Z,175.23
2023-04-03T08:43:19.001Z,181.47
2023-04-03T08:45:51.244Z,169.67
2023-04-03T08:48:22.661Z,171.83
2023-04-03T08:50:55.499Z,174.57
2023-04-03T08:53:28.107Z,182.00
2023-04-03T08:55:57.174Z,177.93
2023-04-03T08:58:27.886Z,170.97
2023-04-03T09:00:59.172Z,157.17
2023-04-03T09:03:27.295Z,150.83
2023-04-03T09:06:02.004Z,158.87
2023-04-03T09:08:32.781Z,152.70
2023-04-03T09:11:14.804Z,138.80
2023-04-03T09:13:51.618Z,148.00
2023-04-03T09:16:28.255Z,143.73
2023-04-03T09:19:04.829Z,138.83
2023-04-03T09:21:39.184Z,123.33
2023-04-03T09:24:09.153Z,117.50
2023-04-03T09:26:44.555Z,128.73
2023-04-03T09:29:19.579Z,120.73
2023-04-03T09:31:49.782Z,121.00
2023-04-03T09:34:24.484Z,121.93
2023-04-03T09:36:57.068Z,109.43
2023-04-03T09:39:28.054Z,109.63
2023-04-03T09:42:02.235Z,112.53
2023-04-03T09:44:32.616Z,117.27
2023-04-03T09:47:01.268Z,113.80
2023-04-03T09:49:29.307Z,108.37
2023-04-03T09:51:58.286Z,107.40
2023-04-03T09:54:32.715Z,107.67
2023-04-03T09:57:06.178Z,101.47
2023-04-03T09:59:34.817Z,111.67
2023-04-03T10:02:05.237Z,98.43
2023-04-03T10:04:43.291Z,99.50
2023-04-03T10:07:33.499Z,93.87
2023-04-03T10:10:04.990Z,80.97
2023-04-03T10:12:32.741Z,78.37
2023-04-03T10:15:02.297Z,79.63
2023-04-03T10:17:44.857Z,78.33
2023-04-03T10:20:29.162Z,72.53
2023-04-03T10:23:06.196Z,66.53
2023-04-03T10:25:42.889Z,70.13
2023-04-03T10:28:17.962Z,63.77
2023-04-03T10:30:56.067Z,66.87
2023-04-03T10:33:38.153Z,69.57
2023-04-03T10:36:19.578Z,64.50
2023-04-03T10:38:57.494Z,62.37
2023-04-03T10:41:32.777Z,68.03
2023-04-03T10:44:08.734Z,72.07
2023-04-03T10:46:40.114Z,69.00
2023-04-03T10:49:21.253Z,59.10
2023-04-03T10:51:54.546Z,53.70
2023-04-03T10:54:27.872Z,52.80
2023-04-03T10:57:11.066Z,44.40
2023-04-03T10:59:45.712Z,40.73
2023-04-03T11:02:19.973Z,44.47
2023-04-03T11:04:53.152Z,44.20
2023-04-03T11:07:24.204Z,43.80
2023-04-03T11:09:57.868Z,43.67
2023-04-03T11:12:30.944Z,40.97
2023-04-03T11:14:59.046Z,40.73
2023-04-03T11:17:35.350Z,42.53
2023-04-03T11:20:12.104Z,46.50
2023-04-03T11:22:43.878Z,48.53
2023-04-03T11:25:23.722Z,47.30
2023-04-03T11:27:55.777Z,40.93
2023-04-03T11:30:27.366Z,37.87
2023-04-03T11:33:18.473Z,41.27
2023-04-03T11:35:49.058Z,40.63
2023-04-03T11:38:23.859Z,41.40
2023-04-03T11:40:53.508Z,45.83
2023-04-03T11:43:27.696Z,45.87
2023-04-03T11:46:00.123Z,44.43
2023-04-03T11:48:57.301Z,42.73
2023-04-03T11:51:44.933Z,43.70
2023-04-03T11:54:47.588Z,41.27
2023-04-03T11:57:57.968Z,39.27
2023-04-03T12:01:03.496Z,39.10
2023-04-03T12:04:04.314Z,42.67
2023-04-03T12:07:15.723Z,39.17
2023-04-03T12:10:28.703Z,38.13
2023-04-03T12:13:03.261Z,34.23
2023-04-03T12:15:55.657Z,41.70
2023-04-03T12:18:45.421Z,39.07
2023-04-03T12:21:14.989Z,33.70
2023-04-03T12:24:04.659Z,41.67
2023-04-03T12:26:47.629Z,42.10
2023-04-03T12:29:22.359Z,40.67
2023-04-03T12:32:07.134Z,44.37
2023-04-03T12:34:58.070Z,39.37
2023-04-03T12:37:42.741Z,38.90
2023-04-03T12:40:18.525Z,45.17
2023-04-03T12:43:09.103Z,43.67
2023-04-03T12:45:44.565Z,42.57
2023-04-03T12:48:17.718Z,44.60
2023-04-03T12:50:48.977Z,44.57
2023-04-03T12:53:21.258Z,46.63
2023-04-03T12:55:48.927Z,43.90
2023-04-03T12:58:22.806Z,45.57
2023-04-03T13:01:03.130Z,46.30
2023-04-03T13:03:31.390Z,48.17
2023-04-03T13:06:04.245Z,49.83
2023-04-03T13:08:32.513Z,52.47
2023-04-03T13:11:03.547Z,51.58
2023-04-03T13:13:31.911Z,55.03
2023-04-03T13:16:00.609Z,58.97
2023-04-03T13:18:32.017Z,53.13
2023-04-03T13:21:06.664Z,54.50
2023-04-03T13:23:38.297Z,50.27
2023-04-03T13:26:07.779Z,52.03
2023-04-03T13:28:37.818Z,52.30
2023-04-03T13:31:12.574Z,47.90
2023-04-03T13:33:40.885Z,49.33
2023-04-03T13:36:19.527Z,51.80
2023-04-03T13:38:47.204Z,43.20
2023-04-03T13:41:28.266Z,40.80
2023-04-03T13:44:03.423Z,42.33
2023-04-03T13:46:38.408Z,34.22
2023-04-03T13:49:20.828Z,38.73
2023-04-03T13:52:03.938Z,35.43
2023-04-03T13:54:37.471Z,36.78
2023-04-03T13:57:13.743Z,38.70
2023-04-03T13:59:41.413Z,37.80
2023-04-03T14:02:18.782Z,37.03
2023-04-03T14:04:54.147Z,37.88
2023-04-03T14:07:23.219Z,38.20
2023-04-03T14:09:51.583Z,32.30
2023-04-03T14:12:30.871Z,29.08
2023-04-03T14:15:00.521Z,22.03
2023-04-03T14:17:28.697Z,26.38
2023-04-03T14:19:58.500Z,25.63
2023-04-03T14:22:30.246Z,26.00
2023-04-03T14:24:58.437Z,28.37
2023-04-03T14:27:29.481Z,26.70
2023-04-03T14:29:58.851Z,26.00
2023-04-03T14:32:28.081Z,26.80
2023-04-03T14:34:56.218Z,26.63
2023-04-03T14:37:26.021Z,25.07
2023-04-03T14:39:55.911Z,23.77
2023-04-03T14:42:25.342Z,24.60
2023-04-03T14:44:53.669Z,24.80
2023-04-03T14:47:31.251Z,25.13
2023-04-03T14:49:59.864Z,20.02
2023-04-03T14:52:30.388Z,21.77
2023-04-03T14:55:01.234Z,26.13
2023-04-03T14:57:30.528Z,26.02
2023-04-03T14:59:58.712Z,25.33
2023-04-03T15:02:30.384Z,25.33
2023-04-03T15:04:59.147Z,24.87
2023-04-03T15:07:29.626Z,25.23
2023-04-03T15:09:57.680Z,29.90
2023-04-03T15:12:27.191Z,27.80
2023-04-03T15:15:01.084Z,26.10
2023-04-03T15:17:31.346Z,24.47
2023-04-03T15:20:00.496Z,27.77
2023-04-03T15:22:28.327Z,26.67
2023-04-03T15:24:55.981Z,25.30
2023-04-03T15:27:23.824Z,28.33
2023-04-03T15:29:52.791Z,28.00
2023-04-03T15:32:20.540Z,30.30
2023-04-03T15:34:48.148Z,28.10
2023-04-03T15:37:15.756Z,25.63
2023-04-03T15:39:43.406Z,25.70
2023-04-03T15:42:11.049Z,27.30
2023-04-03T15:44:39.043Z,27.17
2023-04-03T15:47:08.111Z,24.58
2023-04-03T15:49:36.411Z,27.50
2023-04-03T15:52:04.410Z,28.98
2023-04-03T15:54:32.216Z,28.38
2023-04-03T15:56:59.914Z,28.43
2023-04-03T15:59:29.900Z,28.03
2023-04-03T16:01:57.640Z,33.00
2023-04-03T16:04:26.884Z,28.13
2023-04-03T16:06:54.567Z,29.67
2023-04-03T16:09:22.181Z,28.53
2023-04-03T16:11:50.008Z,30.90
2023-04-03T16:14:17.661Z,27.60
2023-04-03T16:16:45.633Z,30.20
2023-04-03T16:19:14.030Z,28.40
2023-04-03T16:21:43.084Z,27.10
2023-04-03T16:24:11.003Z,30.33
2023-04-03T16:26:38.615Z,30.07
2023-04-03T16:29:06.252Z,28.53
2023-04-03T16:31:35.596Z,27.87
2023-04-03T16:34:03.502Z,28.83
2023-04-03T16:36:31.234Z,26.33
2023-04-03T16:39:00.385Z,29.83
2023-04-03T16:41:28.053Z,28.30
2023-04-03T16:43:55.706Z,27.57
2023-04-03T16:46:24.393Z,29.30
2023-04-03T16:48:52.036Z,26.07
2023-04-03T16:51:19.683Z,29.73
2023-04-03T16:53:47.438Z,29.13
2023-04-03T16:56:16.741Z,30.40
2023-04-03T16:58:44.924Z,28.53
2023-04-03T17:01:14.144Z,26.93
2023-04-03T17:03:41.921Z,26.30
2023-04-03T17:06:15.541Z,24.53
2023-04-03T17:08:43.915Z,25.47
2023-04-03T17:11:12.048Z,27.60
2023-04-03T17:13:41.067Z,22.20
2023-04-03T17:16:12.012Z,27.43
2023-04-03T17:18:39.892Z,25.17
2023-04-03T17:21:08.775Z,26.57
2023-04-03T17:23:38.225Z,27.57
2023-04-03T17:26:06.313Z,27.43
2023-04-03T17:28:33.985Z,25.17
2023-04-03T17:31:04.017Z,24.63
2023-04-03T17:33:32.044Z,27.50
2023-04-03T17:36:01.347Z,31.47
2023-04-03T17:38:29.522Z,31.27
2023-04-03T17:40:58.382Z,28.13
2023-04-03T17:43:26.832Z,30.67
2023-04-03T17:45:55.954Z,31.10
2023-04-03T17:48:26.277Z,30.27
2023-04-03T17:50:53.906Z,33.90
2023-04-03T17:53:21.550Z,33.73
2023-04-03T17:55:49.179Z,32.77
2023-04-03T17:58:17.527Z,37.07
2023-04-03T18:00:45.276Z,36.17
2023-04-03T18:03:12.952Z,37.17
2023-04-03T18:05:42.108Z,36.20
2023-04-03T18:08:09.887Z,36.67
2023-04-03T18:10:38.454Z,39.57
2023-04-03T18:13:07.748Z,30.90
2023-04-03T18:15:35.709Z,37.77
2023-04-03T18:18:03.529Z,36.77
2023-04-03T18:20:31.439Z,35.73
2023-04-03T18:23:00.512Z,30.53
2023-04-03T18:25:28.375Z,37.97
2023-04-03T18:27:58.426Z,34.70
2023-04-03T18:30:26.445Z,36.20
2023-04-03T18:32:54.319Z,37.30
2023-04-03T18:35:22.036Z,40.53
2023-04-03T18:37:49.660Z,42.27
2023-04-03T18:40:18.940Z,39.57
2023-04-03T18:42:46.720Z,35.90
2023-04-03T18:45:22.417Z,31.70
2023-04-03T18:47:50.649Z,36.50
2023-04-03T18:50:18.592Z,36.13
2023-04-03T18:52:46.952Z,34.37
2023-04-03T18:55:16.850Z,34.50
2023-04-03T18:57:46.424Z,38.10
2023-04-03T19:00:15.371Z,36.03
2023-04-03T19:02:43.764Z,40.40
2023-04-03T19:05:14.829Z,34.07
2023-04-03T19:07:44.660Z,33.40
2023-04-03T19:10:17.055Z,38.30
2023-04-03T19:12:47.136Z,34.10
2023-04-03T19:15:15.345Z,35.30
2023-04-03T19:17:43.143Z,38.17
2023-04-03T19:20:13.217Z,36.50
2023-04-03T19:22:41.909Z,38.93
2023-04-03T19:25:11.505Z,36.00
2023-04-03T19:27:40.290Z,36.17
2023-04-03T19:30:11.979Z,37.43
2023-04-03T19:32:39.817Z,37.67
2023-04-03T19:35:08.940Z,36.60
2023-04-03T19:37:36.897Z,36.80
2023-04-03T19:40:05.704Z,36.40
2023-04-03T19:42:34.479Z,37.40
2023-04-03T19:45:02.124Z,43.43
2023-04-03T19:47:31.335Z,38.87
2023-04-03T19:49:58.982Z,46.07
2023-04-03T19:52:26.629Z,45.87
2023-04-03T19:54:54.540Z,50.00
2023-04-03T19:57:22.228Z,49.10
2023-04-03T19:59:49.913Z,46.83
2023-04-03T20:02:18.756Z,45.60
2023-04-03T20:04:48.765Z,51.53
2023-04-03T20:07:16.566Z,50.93
2023-04-03T20:09:44.345Z,48.90
2023-04-03T20:12:12.256Z,49.17
2023-04-03T20:14:40.936Z,50.70
2023-04-03T20:17:08.595Z,50.13
2023-04-03T20:19:36.727Z,44.67
2023-04-03T20:22:05.791Z,46.73
2023-04-03T20:24:33.963Z,49.30
2023-04-03T20:27:01.831Z,46.50
2023-04-03T20:29:29.459Z,45.80
2023-04-03T20:31:57.596Z,46.70
2023-04-03T20:34:25.769Z,51.23
2023-04-03T20:36:53.417Z,50.97
2023-04-03T20:39:24.600Z,47.53
2023-04-03T20:41:52.838Z,51.83
2023-04-03T20:44:21.720Z,47.43
2023-04-03T20:46:53.467Z,47.60
2023-04-03T20:49:22.802Z,43.93
2023-04-03T20:51:51.108Z,48.80
2023-04-03T20:54:19.002Z,50.40
2023-04-03T20:56:49.566Z,50.93
2023-04-03T20:59:17.673Z,53.00
2023-04-03T21:01:46.805Z,54.57
2023-04-03T21:04:19.290Z,55.77
2023-04-03T21:07:24.434Z,51.90
2023-04-03T21:10:29.613Z,46.50
2023-04-03T21:13:34.729Z,44.53
2023-04-03T21:16:02.172Z,53.23
2023-04-03T21:18:41.953Z,55.50
2023-04-03T21:21:18.709Z,55.10
2023-04-03T21:23:47.149Z,51.60
2023-04-03T21:26:15.425Z,56.23
2023-04-03T21:28:44.054Z,55.57
2023-04-03T21:31:12.758Z,56.67
2023-04-03T21:33:42.383Z,54.93
2023-04-03T21:36:10.611Z,60.03
2023-04-03T21:38:38.274Z,55.03
2023-04-03T21:41:05.986Z,55.40
2023-04-03T21:43:33.691Z,56.23
2023-04-03T21:46:01.870Z,59.13
2023-04-03T21:48:30.522Z,55.47
2023-04-03T21:51:06.522Z,57.73
2023-04-03T21:53:35.452Z,54.87
2023-04-03T21:56:03.111Z,54.13
2023-04-03T21:58:32.326Z,59.27
2023-04-03T22:01:09.486Z,58.93
2023-04-03T22:03:37.182Z,49.17
2023-04-03T22:06:06.866Z,56.57
2023-04-03T22:08:34.717Z,52.33
2023-04-03T22:11:03.549Z,58.70
2023-04-03T22:13:31.427Z,51.83
2023-04-03T22:15:59.347Z,50.77
2023-04-03T22:18:27.339Z,49.87
2023-04-03T22:20:55.684Z,55.77
2023-04-03T22:23:24.735Z,52.17
2023-04-03T22:26:00.157Z,49.93
2023-04-03T22:28:28.565Z,51.37
2023-04-03T22:30:57.103Z,49.30
2023-04-03T22:33:24.816Z,47.60
2023-04-03T22:35:52.808Z,51.97
2023-04-03T22:38:20.450Z,44.40
2023-04-03T22:40:57.380Z,50.90
2023-04-03T22:43:25.358Z,45.53
2023-04-03T22:45:52.967Z,47.43
2023-04-03T22:48:20.948Z,44.03
2023-04-03T22:50:48.647Z,41.53
2023-04-03T22:53:16.964Z,41.00
2023-04-03T22:55:44.689Z,50.13
2023-04-03T22:58:13.657Z,47.23
2023-04-03T23:00:41.731Z,45.07
2023-04-03T23:03:12.864Z,46.33
2023-04-03T23:05:40.830Z,44.37
2023-04-03T23:08:08.445Z,44.57
2023-04-03T23:10:36.193Z,46.57
2023-04-03T23:13:03.900Z,43.93
2023-04-03T23:15:32.886Z,46.47
2023-04-03T23:18:00.656Z,45.17
2023-04-03T23:20:28.289Z,44.77
2023-04-03T23:22:55.922Z,45.53
2023-04-03T23:25:23.624Z,48.07
2023-04-03T23:27:52.539Z,44.37
2023-04-03T23:30:20.913Z,37.30
2023-04-03T23:32:49.889Z,38.77
2023-04-03T23:35:17.894Z,38.93
2023-04-03T23:37:45.594Z,41.47
2023-04-03T23:40:13.741Z,40.60
2023-04-03T23:42:41.454Z,42.23
2023-04-03T23:45:10.211Z,39.23
2023-04-03T23:47:38.252Z,45.00
2023-04-03T23:50:08.557Z,40.43
2023-04-03T23:52:36.185Z,41.13
2023-04-03T23:55:04.499Z,43.60
2023-04-03T23:57:32.223Z,40.03
2023-04-03T23:59:59.858Z,43.47
